sensor_id;sensor_type;location;lat;lon;timestamp;P1;durP1;ratioP1;P2;durP2;ratioP2
45618;SDS011;31343;47.520;19.144;2023-03-31T00:01:07;29.13;;;17.20;;
45618;SDS011;31343;47.520;19.144;2023-03-31T00:03:33;28.90;;;19.45;;
45618;SDS011;31343;47.520;19.144;2023-03-31T00:06:02;25.58;;;18.63;;
45618;SDS011;31343;47.520;19.144;2023-03-31T00:08:29;27.02;;;18.13;;
45618;SDS011;31343;47.520;19.144;2023-03-31T00:10:59;26.83;;;17.02;;
45618;SDS011;31343;47.520;19.144;2023-03-31T00:13:27;26.77;;;17.77;;
45618;SDS011;31343;47.520;19.144;2023-03-31T00:15:57;22.65;;;18.38;;
45618;SDS011;31343;47.520;19.144;2023-03-31T00:18:28;29.60;;;19.05;;
45618;SDS011;31343;47.520;19.144;2023-03-31T00:20:58;28.67;;;18.38;;
45618;SDS011;31343;47.520;19.144;2023-03-31T00:23:31;29.35;;;18.73;;
45618;SDS011;31343;47.520;19.144;2023-03-31T00:25:57;26.67;;;19.15;;
45618;SDS011;31343;47.520;19.144;2023-03-31T00:28:22;27.15;;;20.08;;
45618;SDS011;31343;47.520;19.144;2023-03-31T00:30:48;25.00;;;18.20;;
45618;SDS011;31343;47.520;19.144;2023-03-31T00:33:14;27.20;;;20.17;;
45618;SDS011;31343;47.520;19.144;2023-03-31T00:35:40;28.65;;;20.33;;
45618;SDS011;31343;47.520;19.144;2023-03-31T00:38:06;25.63;;;19.60;;
45618;SDS011;31343;47.520;19.144;2023-03-31T00:40:42;30.20;;;20.02;;
45618;SDS011;31343;47.520;19.144;2023-03-31T00:43:31;27.75;;;20.75;;
45618;SDS011;31343;47.520;19.144;2023-03-31T00:45:59;26.70;;;20.27;;
45618;SDS011;31343;47.520;19.144;2023-03-31T00:48:27;25.38;;;18.67;;
45618;SDS011;31343;47.520;19.144;2023-03-31T00:50:54;28.10;;;20.63;;
45618;SDS011;31343;47.520;19.144;2023-03-31T00:53:23;26.58;;;19.67;;
45618;SDS011;31343;47.520;19.144;2023-03-31T00:55:54;23.73;;;18.58;;
45618;SDS011;31343;47.520;19.144;2023-03-31T00:58:25;26.40;;;18.95;;
45618;SDS011;31343;47.520;19.144;2023-03-31T01:00:53;23.95;;;18.88;;
45618;SDS011;31343;47.520;19.144;2023-03-31T01:03:21;25.52;;;18.25;;
45618;SDS011;31343;47.520;19.144;2023-03-31T01:05:49;25.13;;;18.55;;
45618;SDS011;31343;47.520;19.144;2023-03-31T01:08:19;19.98;;;13.48;;
45618;SDS011;31343;47.520;19.144;2023-03-31T01:10:51;19.88;;;14.55;;
45618;SDS011;31343;47.520;19.144;2023-03-31T01:13:20;19.65;;;12.95;;
45618;SDS011;31343;47.520;19.144;2023-03-31T01:15:47;13.68;;;9.98;;
45618;SDS011;31343;47.520;19.144;2023-03-31T01:18:13;11.95;;;7.28;;
45618;SDS011;31343;47.520;19.144;2023-03-31T01:40:23;6.95;;;4.05;;
45618;SDS011;31343;47.520;19.144;2023-03-31T01:42:55;6.43;;;3.83;;
45618;SDS011;31343;47.520;19.144;2023-03-31T01:45:35;7.00;;;4.05;;
45618;SDS011;31343;47.520;19.144;2023-03-31T01:50:54;5.13;;;3.53;;
45618;SDS011;31343;47.520;19.144;2023-03-31T01:56:21;6.40;;;3.72;;
45618;SDS011;31343;47.520;19.144;2023-03-31T01:58:52;8.80;;;4.63;;
45618;SDS011;31343;47.520;19.144;2023-03-31T02:01:27;7.68;;;4.05;;
45618;SDS011;31343;47.520;19.144;2023-03-31T02:04:04;5.40;;;3.60;;
45618;SDS011;31343;47.520;19.144;2023-03-31T02:06:37;6.15;;;3.42;;
45618;SDS011;31343;47.520;19.144;2023-03-31T02:09:09;6.38;;;3.88;;
45618;SDS011;31343;47.520;19.144;2023-03-31T02:11:45;5.22;;;3.17;;
45618;SDS011;31343;47.520;19.144;2023-03-31T02:14:14;5.68;;;3.60;;
45618;SDS011;31343;47.520;19.144;2023-03-31T02:16:45;5.63;;;4.10;;
45618;SDS011;31343;47.520;19.144;2023-03-31T02:19:16;5.68;;;3.72;;
45618;SDS011;31343;47.520;19.144;2023-03-31T02:21:44;6.18;;;3.95;;
45618;SDS011;31343;47.520;19.144;2023-03-31T02:24:15;5.10;;;3.75;;
45618;SDS011;31343;47.520;19.144;2023-03-31T02:26:51;5.97;;;4.22;;
45618;SDS011;31343;47.520;19.144;2023-03-31T02:29:20;4.85;;;3.22;;
45618;SDS011;31343;47.520;19.144;2023-03-31T02:31:47;7.25;;;3.70;;
45618;SDS011;31343;47.520;19.144;2023-03-31T02:34:20;5.18;;;2.85;;
45618;SDS011;31343;47.520;19.144;2023-03-31T02:36:46;6.72;;;3.38;;
45618;SDS011;31343;47.520;19.144;2023-03-31T02:39:18;4.85;;;3.47;;
45618;SDS011;31343;47.520;19.144;2023-03-31T02:41:47;7.00;;;3.37;;
45618;SDS011;31343;47.520;19.144;2023-03-31T02:44:13;4.15;;;2.92;;
45618;SDS011;31343;47.520;19.144;2023-03-31T02:46:41;7.78;;;3.40;;
45618;SDS011;31343;47.520;19.144;2023-03-31T02:49:08;5.93;;;2.95;;
45618;SDS011;31343;47.520;19.144;2023-03-31T02:51:43;5.20;;;3.08;;
45618;SDS011;31343;47.520;19.144;2023-03-31T03:00:21;5.60;;;3.55;;
45618;SDS011;31343;47.520;19.144;2023-03-31T03:14:16;5.28;;;3.10;;
45618;SDS011;31343;47.520;19.144;2023-03-31T03:17:13;4.13;;;2.75;;
45618;SDS011;31343;47.520;19.144;2023-03-31T03:19:41;4.68;;;3.00;;
45618;SDS011;31343;47.520;19.144;2023-03-31T03:22:07;8.65;;;3.05;;
45618;SDS011;31343;47.520;19.144;2023-03-31T03:24:33;4.38;;;3.08;;
45618;SDS011;31343;47.520;19.144;2023-03-31T03:26:59;4.70;;;2.88;;
45618;SDS011;31343;47.520;19.144;2023-03-31T03:29:25;5.00;;;3.45;;
45618;SDS011;31343;47.520;19.144;2023-03-31T03:31:52;5.00;;;2.90;;
45618;SDS011;31343;47.520;19.144;2023-03-31T03:34:18;5.55;;;3.65;;
45618;SDS011;31343;47.520;19.144;2023-03-31T03:36:45;5.25;;;3.08;;
45618;SDS011;31343;47.520;19.144;2023-03-31T03:39:11;5.80;;;3.28;;
45618;SDS011;31343;47.520;19.144;2023-03-31T03:41:37;5.10;;;3.75;;
45618;SDS011;31343;47.520;19.144;2023-03-31T03:44:03;4.70;;;3.05;;
45618;SDS011;31343;47.520;19.144;2023-03-31T03:46:29;6.10;;;3.22;;
45618;SDS011;31343;47.520;19.144;2023-03-31T03:48:55;5.60;;;3.60;;
45618;SDS011;31343;47.520;19.144;2023-03-31T03:51:21;4.30;;;2.90;;
45618;SDS011;31343;47.520;19.144;2023-03-31T03:53:47;4.55;;;2.97;;
45618;SDS011;31343;47.520;19.144;2023-03-31T03:56:13;6.13;;;2.67;;
45618;SDS011;31343;47.520;19.144;2023-03-31T03:58:38;6.18;;;3.28;;
45618;SDS011;31343;47.520;19.144;2023-03-31T04:01:04;4.00;;;2.65;;
45618;SDS011;31343;47.520;19.144;2023-03-31T04:03:30;3.83;;;2.78;;
45618;SDS011;31343;47.520;19.144;2023-03-31T04:05:56;4.65;;;3.00;;
45618;SDS011;31343;47.520;19.144;2023-03-31T04:08:22;5.72;;;3.60;;
45618;SDS011;31343;47.520;19.144;2023-03-31T04:10:48;7.70;;;4.68;;
45618;SDS011;31343;47.520;19.144;2023-03-31T04:13:17;7.47;;;5.03;;
45618;SDS011;31343;47.520;19.144;2023-03-31T04:15:44;7.45;;;5.25;;
45618;SDS011;31343;47.520;19.144;2023-03-31T04:18:10;7.32;;;4.80;;
45618;SDS011;31343;47.520;19.144;2023-03-31T04:20:43;7.22;;;5.25;;
45618;SDS011;31343;47.520;19.144;2023-03-31T04:23:09;7.15;;;5.10;;
45618;SDS011;31343;47.520;19.144;2023-03-31T04:25:39;7.13;;;4.72;;
45618;SDS011;31343;47.520;19.144;2023-03-31T04:28:10;10.18;;;5.70;;
45618;SDS011;31343;47.520;19.144;2023-03-31T04:30:38;8.52;;;5.78;;
45618;SDS011;31343;47.520;19.144;2023-03-31T04:33:05;9.20;;;5.05;;
45618;SDS011;31343;47.520;19.144;2023-03-31T04:35:30;7.18;;;4.70;;
45618;SDS011;31343;47.520;19.144;2023-03-31T04:38:14;6.90;;;4.65;;
45618;SDS011;31343;47.520;19.144;2023-03-31T04:40:43;6.00;;;4.95;;
45618;SDS011;31343;47.520;19.144;2023-03-31T04:43:10;6.32;;;4.70;;
45618;SDS011;31343;47.520;19.144;2023-03-31T04:45:36;6.70;;;4.78;;
45618;SDS011;31343;47.520;19.144;2023-03-31T04:48:02;7.93;;;5.45;;
45618;SDS011;31343;47.520;19.144;2023-03-31T04:50:28;10.02;;;5.40;;
45618;SDS011;31343;47.520;19.144;2023-03-31T04:52:53;7.57;;;5.43;;
45618;SDS011;31343;47.520;19.144;2023-03-31T04:55:19;7.13;;;4.80;;
45618;SDS011;31343;47.520;19.144;2023-03-31T04:57:45;9.80;;;5.50;;
45618;SDS011;31343;47.520;19.144;2023-03-31T05:00:11;8.20;;;5.47;;
45618;SDS011;31343;47.520;19.144;2023-03-31T05:02:37;7.97;;;5.35;;
45618;SDS011;31343;47.520;19.144;2023-03-31T05:05:03;8.52;;;5.25;;
45618;SDS011;31343;47.520;19.144;2023-03-31T05:07:30;7.82;;;5.10;;
45618;SDS011;31343;47.520;19.144;2023-03-31T05:09:55;6.05;;;4.47;;
45618;SDS011;31343;47.520;19.144;2023-03-31T05:12:21;6.13;;;4.53;;
45618;SDS011;31343;47.520;19.144;2023-03-31T05:14:47;6.20;;;4.78;;
45618;SDS011;31343;47.520;19.144;2023-03-31T05:17:13;4.97;;;3.58;;
45618;SDS011;31343;47.520;19.144;2023-03-31T05:19:38;5.75;;;3.67;;
45618;SDS011;31343;47.520;19.144;2023-03-31T05:22:04;6.78;;;3.72;;
45618;SDS011;31343;47.520;19.144;2023-03-31T05:24:30;4.95;;;3.70;;
45618;SDS011;31343;47.520;19.144;2023-03-31T05:26:56;5.95;;;3.90;;
45618;SDS011;31343;47.520;19.144;2023-03-31T05:29:22;7.55;;;4.20;;
45618;SDS011;31343;47.520;19.144;2023-03-31T05:31:48;6.75;;;4.57;;
45618;SDS011;31343;47.520;19.144;2023-03-31T05:34:15;7.72;;;5.15;;
45618;SDS011;31343;47.520;19.144;2023-03-31T05:36:40;6.43;;;4.60;;
45618;SDS011;31343;47.520;19.144;2023-03-31T05:39:07;9.48;;;5.57;;
45618;SDS011;31343;47.520;19.144;2023-03-31T05:41:34;7.88;;;5.25;;
45618;SDS011;31343;47.520;19.144;2023-03-31T05:44:00;8.10;;;5.38;;
45618;SDS011;31343;47.520;19.144;2023-03-31T05:46:29;8.05;;;5.57;;
45618;SDS011;31343;47.520;19.144;2023-03-31T05:48:55;6.78;;;3.95;;
45618;SDS011;31343;47.520;19.144;2023-03-31T05:51:21;7.47;;;5.20;;
45618;SDS011;31343;47.520;19.144;2023-03-31T05:53:47;5.90;;;4.22;;
45618;SDS011;31343;47.520;19.144;2023-03-31T05:56:13;5.75;;;4.50;;
45618;SDS011;31343;47.520;19.144;2023-03-31T05:58:38;7.82;;;4.35;;
45618;SDS011;31343;47.520;19.144;2023-03-31T06:01:05;10.55;;;4.95;;
45618;SDS011;31343;47.520;19.144;2023-03-31T06:03:34;6.65;;;4.63;;
45618;SDS011;31343;47.520;19.144;2023-03-31T06:06:02;7.57;;;4.90;;
45618;SDS011;31343;47.520;19.144;2023-03-31T06:08:29;5.80;;;4.18;;
45618;SDS011;31343;47.520;19.144;2023-03-31T06:10:56;6.65;;;4.55;;
45618;SDS011;31343;47.520;19.144;2023-03-31T06:13:22;6.47;;;4.38;;
45618;SDS011;31343;47.520;19.144;2023-03-31T06:16:06;7.18;;;4.65;;
45618;SDS011;31343;47.520;19.144;2023-03-31T06:18:34;7.47;;;4.45;;
45618;SDS011;31343;47.520;19.144;2023-03-31T06:21:00;8.90;;;5.22;;
45618;SDS011;31343;47.520;19.144;2023-03-31T06:23:27;7.90;;;4.15;;
45618;SDS011;31343;47.520;19.144;2023-03-31T06:25:57;4.65;;;2.97;;
45618;SDS011;31343;47.520;19.144;2023-03-31T06:28:28;8.25;;;4.00;;
45618;SDS011;31343;47.520;19.144;2023-03-31T06:31:02;7.47;;;4.55;;
45618;SDS011;31343;47.520;19.144;2023-03-31T06:33:29;4.88;;;3.47;;
45618;SDS011;31343;47.520;19.144;2023-03-31T06:35:55;7.88;;;3.70;;
45618;SDS011;31343;47.520;19.144;2023-03-31T06:38:22;6.20;;;3.88;;
45618;SDS011;31343;47.520;19.144;2023-03-31T06:40:48;6.47;;;3.95;;
45618;SDS011;31343;47.520;19.144;2023-03-31T06:43:14;5.03;;;3.88;;
45618;SDS011;31343;47.520;19.144;2023-03-31T06:45:40;5.55;;;4.18;;
45618;SDS011;31343;47.520;19.144;2023-03-31T06:48:05;5.47;;;3.33;;
45618;SDS011;31343;47.520;19.144;2023-03-31T06:50:31;5.07;;;3.90;;
45618;SDS011;31343;47.520;19.144;2023-03-31T06:52:57;7.85;;;4.75;;
45618;SDS011;31343;47.520;19.144;2023-03-31T06:55:24;7.32;;;5.25;;
45618;SDS011;31343;47.520;19.144;2023-03-31T06:57:50;9.45;;;5.80;;
45618;SDS011;31343;47.520;19.144;2023-03-31T07:00:16;9.40;;;5.78;;
45618;SDS011;31343;47.520;19.144;2023-03-31T07:02:42;8.25;;;5.45;;
45618;SDS011;31343;47.520;19.144;2023-03-31T07:05:08;8.65;;;5.00;;
45618;SDS011;31343;47.520;19.144;2023-03-31T07:07:34;5.95;;;5.10;;
45618;SDS011;31343;47.520;19.144;2023-03-31T07:10:00;7.00;;;4.45;;
45618;SDS011;31343;47.520;19.144;2023-03-31T07:12:25;8.27;;;4.40;;
45618;SDS011;31343;47.520;19.144;2023-03-31T07:14:51;7.07;;;5.57;;
45618;SDS011;31343;47.520;19.144;2023-03-31T07:17:17;6.15;;;4.13;;
45618;SDS011;31343;47.520;19.144;2023-03-31T07:19:42;7.20;;;4.28;;
45618;SDS011;31343;47.520;19.144;2023-03-31T07:22:12;6.55;;;4.30;;
45618;SDS011;31343;47.520;19.144;2023-03-31T07:24:39;5.25;;;3.60;;
45618;SDS011;31343;47.520;19.144;2023-03-31T07:27:05;8.65;;;5.10;;
45618;SDS011;31343;47.520;19.144;2023-03-31T07:29:31;9.52;;;6.30;;
45618;SDS011;31343;47.520;19.144;2023-03-31T07:31:56;10.15;;;5.75;;
45618;SDS011;31343;47.520;19.144;2023-03-31T07:34:22;8.95;;;5.68;;
45618;SDS011;31343;47.520;19.144;2023-03-31T07:36:48;6.97;;;4.57;;
45618;SDS011;31343;47.520;19.144;2023-03-31T07:39:13;6.80;;;5.07;;
45618;SDS011;31343;47.520;19.144;2023-03-31T07:41:39;8.30;;;5.63;;
45618;SDS011;31343;47.520;19.144;2023-03-31T07:44:05;6.47;;;4.70;;
45618;SDS011;31343;47.520;19.144;2023-03-31T07:46:31;7.82;;;4.95;;
45618;SDS011;31343;47.520;19.144;2023-03-31T07:48:57;10.43;;;5.45;;
45618;SDS011;31343;47.520;19.144;2023-03-31T07:51:24;9.45;;;5.07;;
45618;SDS011;31343;47.520;19.144;2023-03-31T07:53:51;8.05;;;5.10;;
45618;SDS011;31343;47.520;19.144;2023-03-31T07:56:20;5.78;;;4.32;;
45618;SDS011;31343;47.520;19.144;2023-03-31T07:58:48;7.15;;;4.40;;
45618;SDS011;31343;47.520;19.144;2023-03-31T08:01:18;6.00;;;4.25;;
45618;SDS011;31343;47.520;19.144;2023-03-31T08:03:46;8.25;;;4.38;;
45618;SDS011;31343;47.520;19.144;2023-03-31T08:06:19;8.40;;;4.82;;
45618;SDS011;31343;47.520;19.144;2023-03-31T08:08:47;8.60;;;5.43;;
45618;SDS011;31343;47.520;19.144;2023-03-31T08:11:13;7.30;;;3.95;;
45618;SDS011;31343;47.520;19.144;2023-03-31T08:13:40;6.22;;;4.10;;
45618;SDS011;31343;47.520;19.144;2023-03-31T08:16:06;7.63;;;3.80;;
45618;SDS011;31343;47.520;19.144;2023-03-31T08:18:32;6.63;;;4.57;;
45618;SDS011;31343;47.520;19.144;2023-03-31T08:20:57;5.85;;;3.97;;
45618;SDS011;31343;47.520;19.144;2023-03-31T08:23:23;6.18;;;4.13;;
45618;SDS011;31343;47.520;19.144;2023-03-31T08:25:49;7.55;;;4.10;;
45618;SDS011;31343;47.520;19.144;2023-03-31T08:28:15;7.43;;;4.25;;
45618;SDS011;31343;47.520;19.144;2023-03-31T08:30:41;5.90;;;3.75;;
45618;SDS011;31343;47.520;19.144;2023-03-31T08:33:07;5.70;;;3.80;;
45618;SDS011;31343;47.520;19.144;2023-03-31T08:35:33;5.70;;;3.22;;
45618;SDS011;31343;47.520;19.144;2023-03-31T08:37:59;4.75;;;3.33;;
45618;SDS011;31343;47.520;19.144;2023-03-31T08:40:26;7.30;;;4.93;;
45618;SDS011;31343;47.520;19.144;2023-03-31T08:43:00;8.20;;;3.92;;
45618;SDS011;31343;47.520;19.144;2023-03-31T08:50:35;7.38;;;4.20;;
45618;SDS011;31343;47.520;19.144;2023-03-31T08:53:12;7.22;;;4.47;;
45618;SDS011;31343;47.520;19.144;2023-03-31T08:55:49;6.20;;;3.78;;
45618;SDS011;31343;47.520;19.144;2023-03-31T09:01:07;4.85;;;3.08;;
45618;SDS011;31343;47.520;19.144;2023-03-31T09:04:13;6.05;;;3.22;;
45618;SDS011;31343;47.520;19.144;2023-03-31T09:06:57;5.97;;;3.20;;
45618;SDS011;31343;47.520;19.144;2023-03-31T09:12:27;6.60;;;3.03;;
45618;SDS011;31343;47.520;19.144;2023-03-31T09:14:57;7.47;;;4.53;;
45618;SDS011;31343;47.520;19.144;2023-03-31T09:17:29;8.48;;;3.40;;
45618;SDS011;31343;47.520;19.144;2023-03-31T09:22:36;6.30;;;2.92;;
45618;SDS011;31343;47.520;19.144;2023-03-31T09:25:19;6.75;;;3.03;;
45618;SDS011;31343;47.520;19.144;2023-03-31T09:27:49;9.13;;;3.13;;
45618;SDS011;31343;47.520;19.144;2023-03-31T09:30:20;5.70;;;3.15;;
45618;SDS011;31343;47.520;19.144;2023-03-31T09:32:48;6.72;;;2.92;;
45618;SDS011;31343;47.520;19.144;2023-03-31T09:37:43;5.97;;;2.65;;
45618;SDS011;31343;47.520;19.144;2023-03-31T09:40:12;4.40;;;2.83;;
45618;SDS011;31343;47.520;19.144;2023-03-31T09:42:49;5.35;;;2.70;;
45618;SDS011;31343;47.520;19.144;2023-03-31T09:45:20;3.95;;;2.65;;
45618;SDS011;31343;47.520;19.144;2023-03-31T09:47:49;5.93;;;2.78;;
45618;SDS011;31343;47.520;19.144;2023-03-31T09:50:16;4.10;;;2.67;;
45618;SDS011;31343;47.520;19.144;2023-03-31T09:52:47;5.47;;;3.05;;
45618;SDS011;31343;47.520;19.144;2023-03-31T09:58:15;5.13;;;2.95;;
45618;SDS011;31343;47.520;19.144;2023-03-31T10:00:42;4.28;;;3.05;;
45618;SDS011;31343;47.520;19.144;2023-03-31T10:03:24;5.38;;;3.03;;
45618;SDS011;31343;47.520;19.144;2023-03-31T10:05:54;4.82;;;2.83;;
45618;SDS011;31343;47.520;19.144;2023-03-31T10:08:27;4.95;;;2.72;;
45618;SDS011;31343;47.520;19.144;2023-03-31T10:11:06;6.10;;;3.25;;
45618;SDS011;31343;47.520;19.144;2023-03-31T10:13:40;5.35;;;2.88;;
45618;SDS011;31343;47.520;19.144;2023-03-31T10:16:31;3.70;;;2.35;;
45618;SDS011;31343;47.520;19.144;2023-03-31T10:21:49;5.63;;;2.70;;
45618;SDS011;31343;47.520;19.144;2023-03-31T10:24:46;3.70;;;1.80;;
45618;SDS011;31343;47.520;19.144;2023-03-31T10:29:41;4.20;;;2.42;;
45618;SDS011;31343;47.520;19.144;2023-03-31T10:32:17;3.75;;;2.20;;
45618;SDS011;31343;47.520;19.144;2023-03-31T10:35:04;5.15;;;2.53;;
45618;SDS011;31343;47.520;19.144;2023-03-31T10:37:32;4.40;;;2.65;;
45618;SDS011;31343;47.520;19.144;2023-03-31T10:40:02;3.70;;;2.60;;
45618;SDS011;31343;47.520;19.144;2023-03-31T10:42:36;4.25;;;2.00;;
45618;SDS011;31343;47.520;19.144;2023-03-31T10:46:03;3.95;;;2.30;;
45618;SDS011;31343;47.520;19.144;2023-03-31T10:48:02;3.58;;;2.13;;
45618;SDS011;31343;47.520;19.144;2023-03-31T10:50:29;6.13;;;2.78;;
45618;SDS011;31343;47.520;19.144;2023-03-31T10:53:02;3.88;;;2.20;;
45618;SDS011;31343;47.520;19.144;2023-03-31T10:55:33;3.95;;;2.60;;
45618;SDS011;31343;47.520;19.144;2023-03-31T11:21:06;3.92;;;2.33;;
45618;SDS011;31343;47.520;19.144;2023-03-31T11:23:41;4.20;;;2.15;;
45618;SDS011;31343;47.520;19.144;2023-03-31T11:26:12;3.40;;;1.60;;
45618;SDS011;31343;47.520;19.144;2023-03-31T11:34:24;2.75;;;1.92;;
45618;SDS011;31343;47.520;19.144;2023-03-31T11:37:24;3.40;;;2.00;;
45618;SDS011;31343;47.520;19.144;2023-03-31T11:40:09;3.95;;;2.08;;
45618;SDS011;31343;47.520;19.144;2023-03-31T11:42:52;2.85;;;1.73;;
45618;SDS011;31343;47.520;19.144;2023-03-31T11:45:21;2.95;;;1.73;;
45618;SDS011;31343;47.520;19.144;2023-03-31T11:48:04;4.80;;;2.20;;
45618;SDS011;31343;47.520;19.144;2023-03-31T11:53:12;3.60;;;2.05;;
45618;SDS011;31343;47.520;19.144;2023-03-31T11:55:45;3.03;;;2.42;;
45618;SDS011;31343;47.520;19.144;2023-03-31T11:58:22;5.07;;;2.42;;
45618;SDS011;31343;47.520;19.144;2023-03-31T12:00:58;4.75;;;2.20;;
45618;SDS011;31343;47.520;19.144;2023-03-31T12:03:46;4.70;;;2.45;;
45618;SDS011;31343;47.520;19.144;2023-03-31T12:06:30;2.63;;;1.60;;
45618;SDS011;31343;47.520;19.144;2023-03-31T12:12:02;5.28;;;2.15;;
45618;SDS011;31343;47.520;19.144;2023-03-31T12:17:12;4.32;;;1.70;;
45618;SDS011;31343;47.520;19.144;2023-03-31T12:24:50;3.40;;;1.80;;
45618;SDS011;31343;47.520;19.144;2023-03-31T12:27:22;2.75;;;2.13;;
45618;SDS011;31343;47.520;19.144;2023-03-31T12:32:22;6.43;;;2.30;;
45618;SDS011;31343;47.520;19.144;2023-03-31T12:35:01;5.03;;;1.90;;
45618;SDS011;31343;47.520;19.144;2023-03-31T12:41:08;6.38;;;2.38;;
45618;SDS011;31343;47.520;19.144;2023-03-31T12:48:57;4.05;;;2.17;;
45618;SDS011;31343;47.520;19.144;2023-03-31T12:54:51;2.92;;;2.03;;
45618;SDS011;31343;47.520;19.144;2023-03-31T12:57:22;3.70;;;2.08;;
45618;SDS011;31343;47.520;19.144;2023-03-31T13:02:41;3.45;;;2.28;;
45618;SDS011;31343;47.520;19.144;2023-03-31T13:08:01;6.07;;;2.30;;
45618;SDS011;31343;47.520;19.144;2023-03-31T13:10:29;6.03;;;2.35;;
45618;SDS011;31343;47.520;19.144;2023-03-31T13:13:00;5.38;;;1.83;;
45618;SDS011;31343;47.520;19.144;2023-03-31T13:15:54;4.68;;;1.50;;
45618;SDS011;31343;47.520;19.144;2023-03-31T13:18:22;3.08;;;1.88;;
45618;SDS011;31343;47.520;19.144;2023-03-31T13:20:58;3.83;;;1.88;;
45618;SDS011;31343;47.520;19.144;2023-03-31T13:23:25;3.95;;;1.73;;
45618;SDS011;31343;47.520;19.144;2023-03-31T13:25:54;4.85;;;2.42;;
45618;SDS011;31343;47.520;19.144;2023-03-31T13:33:50;3.65;;;2.15;;
45618;SDS011;31343;47.520;19.144;2023-03-31T13:42:01;3.90;;;2.22;;
45618;SDS011;31343;47.520;19.144;2023-03-31T13:55:27;4.20;;;1.75;;
45618;SDS011;31343;47.520;19.144;2023-03-31T14:06:27;6.43;;;1.98;;
45618;SDS011;31343;47.520;19.144;2023-03-31T14:09:18;2.88;;;1.70;;
45618;SDS011;31343;47.520;19.144;2023-03-31T14:11:45;3.40;;;1.50;;
45618;SDS011;31343;47.520;19.144;2023-03-31T14:14:12;4.18;;;1.92;;
45618;SDS011;31343;47.520;19.144;2023-03-31T14:16:44;3.90;;;1.67;;
45618;SDS011;31343;47.520;19.144;2023-03-31T14:24:32;4.93;;;2.28;;
45618;SDS011;31343;47.520;19.144;2023-03-31T14:32:44;3.10;;;1.75;;
45618;SDS011;31343;47.520;19.144;2023-03-31T14:35:32;6.65;;;3.25;;
45618;SDS011;31343;47.520;19.144;2023-03-31T14:38:03;6.15;;;2.45;;
45618;SDS011;31343;47.520;19.144;2023-03-31T14:40:44;4.32;;;1.80;;
45618;SDS011;31343;47.520;19.144;2023-03-31T14:43:19;2.60;;;1.55;;
45618;SDS011;31343;47.520;19.144;2023-03-31T14:45:55;4.88;;;1.90;;
45618;SDS011;31343;47.520;19.144;2023-03-31T14:48:31;4.88;;;1.88;;
45618;SDS011;31343;47.520;19.144;2023-03-31T14:51:00;2.92;;;1.70;;
45618;SDS011;31343;47.520;19.144;2023-03-31T14:53:27;3.85;;;1.70;;
45618;SDS011;31343;47.520;19.144;2023-03-31T14:55:58;5.05;;;1.95;;
45618;SDS011;31343;47.520;19.144;2023-03-31T14:58:32;3.35;;;1.92;;
45618;SDS011;31343;47.520;19.144;2023-03-31T15:01:05;2.67;;;1.60;;
45618;SDS011;31343;47.520;19.144;2023-03-31T15:03:33;5.72;;;2.20;;
45618;SDS011;31343;47.520;19.144;2023-03-31T15:06:02;3.78;;;1.70;;
45618;SDS011;31343;47.520;19.144;2023-03-31T15:08:28;4.15;;;2.00;;
45618;SDS011;31343;47.520;19.144;2023-03-31T15:10:57;6.43;;;2.83;;
45618;SDS011;31343;47.520;19.144;2023-03-31T15:13:33;3.88;;;1.67;;
45618;SDS011;31343;47.520;19.144;2023-03-31T15:15:59;3.40;;;2.17;;
45618;SDS011;31343;47.520;19.144;2023-03-31T15:18:43;4.43;;;2.05;;
45618;SDS011;31343;47.520;19.144;2023-03-31T15:21:09;3.47;;;2.15;;
45618;SDS011;31343;47.520;19.144;2023-03-31T15:23:53;4.15;;;1.65;;
45618;SDS011;31343;47.520;19.144;2023-03-31T15:26:23;4.20;;;1.80;;
45618;SDS011;31343;47.520;19.144;2023-03-31T15:28:59;3.63;;;2.08;;
45618;SDS011;31343;47.520;19.144;2023-03-31T15:31:32;3.90;;;2.03;;
45618;SDS011;31343;47.520;19.144;2023-03-31T15:33:58;2.67;;;1.63;;
45618;SDS011;31343;47.520;19.144;2023-03-31T15:36:23;3.95;;;2.00;;
45618;SDS011;31343;47.520;19.144;2023-03-31T15:38:55;3.28;;;1.73;;
45618;SDS011;31343;47.520;19.144;2023-03-31T15:41:23;6.32;;;1.95;;
45618;SDS011;31343;47.520;19.144;2023-03-31T15:44:38;6.40;;;2.22;;
45618;SDS011;31343;47.520;19.144;2023-03-31T15:47:06;5.45;;;1.88;;
45618;SDS011;31343;47.520;19.144;2023-03-31T15:49:46;3.38;;;1.77;;
45618;SDS011;31343;47.520;19.144;2023-03-31T15:52:23;3.60;;;2.08;;
45618;SDS011;31343;47.520;19.144;2023-03-31T15:55:00;3.60;;;1.80;;
45618;SDS011;31343;47.520;19.144;2023-03-31T15:57:51;6.32;;;3.38;;
45618;SDS011;31343;47.520;19.144;2023-03-31T16:03:12;4.68;;;2.13;;
45618;SDS011;31343;47.520;19.144;2023-03-31T16:08:20;3.90;;;1.92;;
45618;SDS011;31343;47.520;19.144;2023-03-31T16:11:08;3.97;;;1.80;;
45618;SDS011;31343;47.520;19.144;2023-03-31T16:13:37;4.03;;;2.30;;
45618;SDS011;31343;47.520;19.144;2023-03-31T16:16:09;4.35;;;1.92;;
45618;SDS011;31343;47.520;19.144;2023-03-31T16:18:39;4.28;;;2.00;;
45618;SDS011;31343;47.520;19.144;2023-03-31T16:21:23;3.05;;;1.60;;
45618;SDS011;31343;47.520;19.144;2023-03-31T16:23:53;4.75;;;1.90;;
45618;SDS011;31343;47.520;19.144;2023-03-31T16:26:22;3.08;;;1.55;;
45618;SDS011;31343;47.520;19.144;2023-03-31T16:28:50;3.63;;;1.67;;
45618;SDS011;31343;47.520;19.144;2023-03-31T16:31:28;13.60;;;3.25;;
45618;SDS011;31343;47.520;19.144;2023-03-31T16:33:59;3.20;;;1.70;;
45618;SDS011;31343;47.520;19.144;2023-03-31T16:36:25;4.93;;;1.90;;
45618;SDS011;31343;47.520;19.144;2023-03-31T16:38:51;7.75;;;3.13;;
45618;SDS011;31343;47.520;19.144;2023-03-31T16:41:18;3.92;;;2.13;;
45618;SDS011;31343;47.520;19.144;2023-03-31T16:43:45;4.28;;;2.17;;
45618;SDS011;31343;47.520;19.144;2023-03-31T16:46:11;4.50;;;1.70;;
45618;SDS011;31343;47.520;19.144;2023-03-31T16:48:37;3.92;;;1.73;;
45618;SDS011;31343;47.520;19.144;2023-03-31T16:51:03;5.30;;;2.42;;
45618;SDS011;31343;47.520;19.144;2023-03-31T16:53:30;6.88;;;2.15;;
45618;SDS011;31343;47.520;19.144;2023-03-31T16:55:58;3.10;;;1.67;;
45618;SDS011;31343;47.520;19.144;2023-03-31T16:58:23;5.20;;;2.40;;
45618;SDS011;31343;47.520;19.144;2023-03-31T17:00:52;5.65;;;2.33;;
45618;SDS011;31343;47.520;19.144;2023-03-31T17:03:18;6.72;;;2.83;;
45618;SDS011;31343;47.520;19.144;2023-03-31T17:05:46;4.90;;;2.00;;
45618;SDS011;31343;47.520;19.144;2023-03-31T17:08:14;3.17;;;1.70;;
45618;SDS011;31343;47.520;19.144;2023-03-31T17:10:41;5.38;;;2.70;;
45618;SDS011;31343;47.520;19.144;2023-03-31T17:13:14;4.78;;;2.20;;
45618;SDS011;31343;47.520;19.144;2023-03-31T17:15:40;3.80;;;2.05;;
45618;SDS011;31343;47.520;19.144;2023-03-31T17:18:05;2.47;;;1.52;;
45618;SDS011;31343;47.520;19.144;2023-03-31T17:20:31;3.05;;;1.50;;
45618;SDS011;31343;47.520;19.144;2023-03-31T17:22:58;4.40;;;1.92;;
45618;SDS011;31343;47.520;19.144;2023-03-31T17:25:24;2.97;;;1.73;;
45618;SDS011;31343;47.520;19.144;2023-03-31T17:27:50;3.35;;;1.70;;
45618;SDS011;31343;47.520;19.144;2023-03-31T17:30:16;4.97;;;1.80;;
45618;SDS011;31343;47.520;19.144;2023-03-31T17:32:42;3.90;;;2.03;;
45618;SDS011;31343;47.520;19.144;2023-03-31T17:35:08;4.68;;;2.03;;
45618;SDS011;31343;47.520;19.144;2023-03-31T17:37:34;7.18;;;2.78;;
45618;SDS011;31343;47.520;19.144;2023-03-31T17:40:01;3.30;;;1.80;;
45618;SDS011;31343;47.520;19.144;2023-03-31T17:42:28;4.03;;;2.00;;
45618;SDS011;31343;47.520;19.144;2023-03-31T17:44:55;5.57;;;2.10;;